Sariyer, Turkey

11:04 AM EEST on August 29, 2014 (GMT +0300)
IISTANBU28 | Change Station
CLOSE
Current Station
Personal Weather Station
Location: Istinye, Istanbul
Elevation: 345 ft
Nearby Weather Stations

Elev 345 ft 41.11 °N, 29.04 °E | Updated 3 minutes ago

Scattered Clouds
Scattered Clouds
75.7 °F
Feels Like 78 °F
N
10.0
Wind Variable Wind from ENE
Gusts 25.0 mph

Today
High -- | Low -- °F
--% Chance of Precip.
Yesterday
High -- | Low -- °F
Precip. -- in
6:26 AM 7:41 PM
Waxing Crescent, 13% visible
Pressure 30.06 in
Visibility 6.2 miles
Clouds Scattered Clouds 4000 ft
Heat Index 78 °F
Dew Point 60 °F
Humidity 59%
Rainfall -999.00 in
Snow Depth Not available.
UV 4.7 out of 12
Pollen Not available.
Air Quality Not available.
Flu Activity Not available.
METAR LTBA 290750Z 05016KT 020V080 9999 SCT040 26/13 Q1018 NOSIG

More Conditions Fewer Conditions

Pressure 30.06 in
Visibility 6.2 miles
Clouds Scattered Clouds 4000 ft
Heat Index 78 °F
Dew Point 60 °F
Humidity 59%
Rainfall -999.00 in
Snow Depth Not available.
UV 4.7 out of 12
Pollen Not available.
Air Quality Not available.
Flu Activity Not available.
METAR LTBA 290750Z 05016KT 020V080 9999 SCT040 26/13 Q1018 NOSIG

More Conditions Fewer Conditions

10-Day Weather Forecast

Almanac

Astronomy

Aug. 29, 2014 Rise Set
Actual Time 6:26 AM EEST 7:41 PM EEST
Civil Twilight 5:58 AM EEST 8:10 PM EEST
Nautical Twilight 5:24 AM EEST 8:44 PM EEST
Astronomical Twilight 4:48 AM EEST 9:19 PM EEST
Moon 9:59 AM EEST 9:25 PM EEST
Length of Visible Light 14h 11m
Length of Day
13h 14m
Tomorrow will be 2m 36s shorter.
Waxing Crescent, 13% of the Moon is Illuminated
Today
Waxing Crescent
Sep 2
First Quarter
Sep 8
Full
Sep 15
Last Quarter
Sep 24
New

Yesterday's Extremes

Country Highs Country Lows

Community

WunderPhotos

Upload Photos

1,748,197 photos uploaded!

Nearby

Snow Depth

Not available.

Earthquake Activity

City Distance Mag. Time & Date
No recent earthquake activity has been reported nearby.
Minimum magnitude displayed is 2.5.

Coastal Water Temperatures

Place Temperature
No Stations Reporting

Nearby Weather Stations